Castle Valley, Utah
Current Conditions -  °F | °C
As of 12:53 AM on Wednesday 22 Oct 2014 (Local Time) from KCNY Reporting Station
Few Clouds Few Clouds  
Wind Chill: 59°   Ceiling: Unl
Heat Index: 59°   Visibility: 10mi
Dew Point: 42°   Wind: 6mph
Humidity: 53%   Direction: 120°ESE
Pressure: 29.97"   Gusts: NA
Location:  38.6903°N, 109.256°W
Report Text: KCNY 220653Z AUTO 12005KT 10SM FEW095 15/06 A2997 RMK AO2 SLP106 T01500056 402440133
Loading
Personal Weather Stations






























Interactive Weather Map
Tropical Storm Tracking
New forecast layout! Learn more

10-Day Weather Forecast

Advertisements
Track Severe Weather on mobile